Mountain View, Oklahoma
Current Conditions -  °F | °C
As of 7:53 PM on Friday 21 Nov 2014 (Local Time) from KHBR Reporting Station
Broken Clouds Broken Clouds  
Wind Chill: 43°   Ceiling: 3800
Heat Index: 45°   Visibility: 8mi
Dew Point: 42°   Wind: 5mph
Humidity: 90%   Direction: 350°N
Pressure: 30.03"   Gusts: NA
Location:  35.1°N, 98.75°W
Report Text: KHBR 220153Z AUTO 35004KT 8SM BKN038 07/06 A3003 RMK AO2 SLP170 T00720056
Loading
Personal Weather Stations






























Interactive Weather Map New forecast layout! Learn more

10-Day Weather Forecast

Advertisements
Track Severe Weather on mobile